Time;durP1;ratioP1;P1;durP2;ratioP2;P2;SDS_P1;SDS_P2;PMS_P1;PMS_P2;Temp;Humidity;BMP_temperature;BMP_pressure;BME280_temperature;BME280_humidity;BME280_pressure;Samples;Min_cycle;Max_cycle;Signal;HPM_P1;HPM_P2
2023/12/02 00:00:35;;;;;;;;;23.50;23.50;;;;;7.62;84.06;100236.81;2102797;28;46208;-58
2023/12/02 00:01:35;;;;;;;;;25.50;23.25;;;;;7.61;83.83;100240.31;2103125;28;46634;-54
2023/12/02 00:02:35;;;;;;;;;30.00;29.00;;;;;7.61;84.09;100232.41;2103939;28;46641;-56
2023/12/02 00:03:36;;;;;;;;;32.00;25.75;;;;;7.61;84.01;100229.75;2097491;28;45701;-58
2023/12/02 00:04:36;;;;;;;;;30.00;28.50;;;;;7.62;84.33;100235.91;2102253;28;46223;-58
2023/12/02 00:05:36;;;;;;;;;28.50;27.50;;;;;7.64;84.09;100231.50;2103803;28;46821;-56
2023/12/02 00:06:36;;;;;;;;;30.75;28.75;;;;;7.64;84.83;100240.28;2105910;28;45675;-57
2023/12/02 00:07:37;;;;;;;;;33.75;31.50;;;;;7.65;84.86;100235.88;2104690;28;46343;-55
2023/12/02 00:08:37;;;;;;;;;35.75;32.00;;;;;7.65;84.75;100233.25;2106183;27;45275;-59
2023/12/02 00:09:38;;;;;;;;;35.75;30.25;;;;;7.66;84.87;100237.63;2104056;27;46282;-56
2023/12/02 00:10:38;;;;;;;;;36.50;30.00;;;;;7.64;84.88;100240.28;2105645;27;46780;-55
2023/12/02 00:11:38;;;;;;;;;32.00;30.50;;;;;7.65;84.84;100236.75;2105691;27;46498;-55
2023/12/02 00:12:38;;;;;;;;;38.00;35.25;;;;;7.67;85.05;100239.38;2105695;28;46303;-53
2023/12/02 00:13:39;;;;;;;;;40.00;33.50;;;;;7.67;85.27;100239.38;2105797;28;46472;-58
2023/12/02 00:14:39;;;;;;;;;36.25;33.50;;;;;7.68;85.23;100241.09;2106046;28;45783;-59
2023/12/02 00:15:40;;;;;;;;;34.75;33.00;;;;;7.67;85.04;100244.66;2096075;28;46147;-57
2023/12/02 00:16:40;;;;;;;;;36.00;31.25;;;;;7.66;84.89;100238.50;2096292;28;46376;-57
2023/12/02 00:17:40;;;;;;;;;37.75;32.75;;;;;7.67;84.83;100239.38;2105653;28;46238;-58
2023/12/02 00:18:40;;;;;;;;;28.00;27.50;;;;;7.67;85.12;100234.94;2105867;28;46221;-56
2023/12/02 00:19:41;;;;;;;;;30.00;29.00;;;;;7.68;85.34;100235.81;2105657;27;46140;-59
2023/12/02 00:20:41;;;;;;;;;30.00;28.50;;;;;7.71;84.99;100237.53;2108821;27;46597;-58
2023/12/02 00:21:41;;;;;;;;;29.00;24.25;;;;;7.70;85.10;100234.03;2104803;28;46728;-57
2023/12/02 00:22:42;;;;;;;;;29.25;27.50;;;;;7.71;84.95;100237.53;2105751;27;46282;-59
2023/12/02 00:23:42;;;;;;;;;36.50;32.25;;;;;7.72;84.75;100241.91;2105600;28;46574;-55
2023/12/02 00:24:42;;;;;;;;;33.00;31.25;;;;;7.71;84.72;100241.03;2105130;28;46247;-54
2023/12/02 00:25:43;;;;;;;;;30.25;28.50;;;;;7.71;84.49;100240.19;2104035;28;46673;-56
2023/12/02 00:26:43;;;;;;;;;34.00;30.00;;;;;7.70;83.98;100243.72;2105801;28;46697;-59
2023/12/02 00:27:43;;;;;;;;;34.25;32.25;;;;;7.70;84.07;100239.31;2105802;27;46305;-57
2023/12/02 00:28:44;;;;;;;;;27.75;27.50;;;;;7.68;83.75;100231.41;2107892;27;46294;-57
2023/12/02 00:29:44;;;;;;;;;32.00;29.25;;;;;7.66;83.87;100235.84;2112882;27;46457;-58
2023/12/02 00:30:44;;;;;;;;;32.75;30.25;;;;;7.66;83.91;100242.91;2105745;27;46487;-60
2023/12/02 00:31:45;;;;;;;;;36.50;32.00;;;;;7.65;84.08;100244.69;2101294;27;47085;-57
2023/12/02 00:32:45;;;;;;;;;30.25;30.00;;;;;7.67;84.27;100240.22;2104944;27;47025;-58
2023/12/02 00:33:46;;;;;;;;;32.75;30.75;;;;;7.66;83.95;100245.56;2105549;27;46313;-57
2023/12/02 00:34:47;;;;;;;;;32.25;30.50;;;;;7.65;83.87;100247.31;2086834;28;46489;-58
2023/12/02 00:35:47;;;;;;;;;30.75;29.75;;;;;7.64;83.67;100245.56;2087210;28;46520;-56
2023/12/02 00:36:48;;;;;;;;;27.00;22.00;;;;;7.64;83.94;100245.56;2104435;28;46023;-60
2023/12/02 00:37:49;;;;;;;;;34.60;30.20;;;;;7.63;83.88;100240.31;2106000;28;45957;-57
2023/12/02 00:38:49;;;;;;;;;31.75;31.25;;;;;7.63;83.85;100242.97;2105469;28;46293;-56
2023/12/02 00:39:49;;;;;;;;;32.50;28.00;;;;;7.63;84.06;100248.25;2105918;27;46299;-59
2023/12/02 00:40:50;;;;;;;;;34.00;31.00;;;;;7.63;84.03;100245.59;2096506;28;46018;-58
2023/12/02 00:41:50;;;;;;;;;36.00;31.00;;;;;7.65;84.39;100243.81;2096084;28;46261;-58
2023/12/02 00:42:50;;;;;;;;;43.50;33.00;;;;;7.64;84.44;100237.66;2105653;28;46874;-59
2023/12/02 00:43:51;;;;;;;;;42.50;35.00;;;;;7.66;84.35;100245.56;2105522;28;46452;-57
2023/12/02 00:44:51;;;;;;;;;34.25;31.00;;;;;7.67;84.57;100242.88;2105620;27;46710;-59
2023/12/02 00:45:51;;;;;;;;;33.00;30.50;;;;;7.66;84.35;100243.78;2104624;28;46601;-57
2023/12/02 00:46:51;;;;;;;;;36.00;29.75;;;;;7.65;84.36;100239.41;2087687;28;46282;-59
2023/12/02 00:47:52;;;;;;;;;34.50;33.00;;;;;7.64;84.04;100242.94;2087839;28;46524;-58
2023/12/02 00:48:52;;;;;;;;;37.25;33.75;;;;;7.65;84.28;100238.53;2105382;28;46710;-57
2023/12/02 00:49:52;;;;;;;;;37.00;33.25;;;;;7.64;84.27;100245.56;2105301;28;46971;-58
2023/12/02 00:50:53;;;;;;;;;32.00;27.25;;;;;7.63;84.29;100238.56;2105333;28;46434;-58
2023/12/02 00:51:53;;;;;;;;;33.75;29.50;;;;;7.64;84.13;100242.06;2105928;27;46136;-58
2023/12/02 00:52:53;;;;;;;;;39.75;33.75;;;;;7.62;84.09;100242.09;2096554;28;46408;-59
2023/12/02 00:53:54;;;;;;;;;34.25;31.25;;;;;7.63;84.17;100240.31;2096792;28;46392;-58
2023/12/02 00:54:54;;;;;;;;;37.00;35.25;;;;;7.63;84.24;100240.31;2101402;28;46814;-56
2023/12/02 00:55:55;;;;;;;;;35.75;32.00;;;;;7.64;84.43;100248.22;2106350;27;47181;-54
2023/12/02 00:56:55;;;;;;;;;35.00;31.75;;;;;7.63;84.56;100241.19;2105570;27;46310;-58
2023/12/02 00:57:55;;;;;;;;;28.25;24.50;;;;;7.64;84.56;100242.06;2104967;28;46490;-59
2023/12/02 00:58:55;;;;;;;;;34.00;30.00;;;;;7.66;85.06;100242.91;2104957;28;46293;-61
2023/12/02 00:59:56;;;;;;;;;36.50;32.25;;;;;7.67;84.83;100239.38;2105299;27;46219;-58
2023/12/02 01:00:56;;;;;;;;;44.50;37.25;;;;;7.67;85.01;100249.94;2105267;28;46471;-57
2023/12/02 01:01:56;;;;;;;;;37.00;35.50;;;;;7.67;85.20;100240.22;2105074;27;46447;-59
2023/12/02 01:02:57;;;;;;;;;31.50;29.50;;;;;7.68;85.12;100241.09;2105252;27;46238;-58
2023/12/02 01:03:57;;;;;;;;;35.00;29.00;;;;;7.69;85.20;100242.84;2104868;28;46654;-56
2023/12/02 01:04:57;;;;;;;;;31.25;31.00;;;;;7.69;85.04;100237.56;2105624;28;46931;-60
2023/12/02 01:05:58;;;;;;;;;38.50;36.00;;;;;7.69;85.20;100240.19;2104547;27;46189;-59
2023/12/02 01:06:58;;;;;;;;;32.00;30.00;;;;;7.70;85.19;100244.59;2105664;28;46184;-59
2023/12/02 01:07:58;;;;;;;;;31.75;28.50;;;;;7.71;84.64;100246.31;2105201;28;46045;-61
2023/12/02 01:08:59;;;;;;;;;38.50;32.75;;;;;7.71;84.47;100245.47;2105439;27;46586;-58
2023/12/02 01:09:59;;;;;;;;;29.25;28.25;;;;;7.70;83.61;100238.44;2104001;27;46256;-60
2023/12/02 01:10:59;;;;;;;;;30.25;27.25;;;;;7.67;83.76;100247.28;2105389;27;46350;-56
2023/12/02 01:12:00;;;;;;;;;24.25;22.50;;;;;7.66;83.45;100243.78;2105314;28;46245;-56
2023/12/02 01:13:00;;;;;;;;;28.75;25.75;;;;;7.65;83.47;100251.72;2104811;28;46342;-58
2023/12/02 01:14:00;;;;;;;;;33.00;28.50;;;;;7.64;83.57;100247.34;2108789;27;46365;-56
2023/12/02 01:15:01;;;;;;;;;28.50;28.25;;;;;7.64;83.47;100252.63;2109867;27;46590;-58
2023/12/02 01:16:01;;;;;;;;;31.00;29.75;;;;;7.64;83.52;100256.16;2101799;28;46339;-57
2023/12/02 01:17:02;;;;;;;;;30.25;27.50;;;;;7.64;83.61;100250.00;2104303;27;47752;-58
2023/12/02 01:18:02;;;;;;;;;30.75;27.00;;;;;7.64;83.26;100258.78;2105089;27;46376;-58
2023/12/02 01:19:02;;;;;;;;;25.00;23.75;;;;;7.65;83.18;100259.66;2104778;27;46363;-57
2023/12/02 01:20:03;;;;;;;;;31.00;26.75;;;;;7.64;83.16;100265.84;2105634;27;46647;-60
2023/12/02 01:21:03;;;;;;;;;24.50;23.75;;;;;7.62;82.21;100257.03;2105445;27;45813;-57
2023/12/02 01:22:04;;;;;;;;;27.00;23.50;;;;;7.59;82.24;100255.31;2108215;27;46537;-58
2023/12/02 01:23:04;;;;;;;;;24.25;23.25;;;;;7.58;82.21;100264.16;2106863;27;46860;-58
2023/12/02 01:24:05;;;;;;;;;26.25;26.25;;;;;7.58;82.01;100266.78;2105256;27;46338;-57
2023/12/02 01:25:06;;;;;;;;;23.25;22.00;;;;;7.58;82.10;100265.91;2094754;28;46896;-57
2023/12/02 01:26:06;;;;;;;;;29.75;28.00;;;;;7.57;82.07;100261.53;2093962;28;46668;-60
2023/12/02 01:27:07;;;;;;;;;29.25;23.00;;;;;7.54;81.68;100267.75;2105578;28;46144;-57
2023/12/02 01:28:07;;;;;;;;;23.00;23.00;;;;;7.52;81.18;100264.25;2103786;28;46406;-60
2023/12/02 01:29:07;;;;;;;;;24.50;22.75;;;;;7.50;81.68;100263.44;2104684;28;46267;-58
2023/12/02 01:30:08;;;;;;;;;28.25;23.00;;;;;7.49;81.51;100259.00;2095292;28;46683;-58
2023/12/02 01:31:08;;;;;;;;;24.50;19.00;;;;;7.49;81.74;100266.94;2093799;28;47201;-59
2023/12/02 01:32:08;;;;;;;;;23.50;23.50;;;;;7.49;81.65;100266.06;2089884;28;46153;-57
2023/12/02 01:33:09;;;;;;;;;29.00;23.25;;;;;7.49;81.58;100271.34;2093717;28;46272;-58
2023/12/02 01:34:09;;;;;;;;;25.00;24.00;;;;;7.50;81.82;100278.41;2105359;28;46625;-58
2023/12/02 01:35:09;;;;;;;;;27.25;23.00;;;;;7.49;81.57;100268.69;2105034;28;47090;-60
2023/12/02 01:36:13;;;;;;;;;31.75;28.75;;;;;7.49;81.65;100272.22;2104864;28;46583;-57
2023/12/02 01:37:14;;;;;;;;;24.00;22.00;;;;;7.48;81.73;100270.47;2104163;28;46414;-57
2023/12/02 01:38:14;;;;;;;;;27.00;22.75;;;;;7.50;82.02;100274.00;2104598;28;46691;-58
2023/12/02 01:39:14;;;;;;;;;25.25;25.25;;;;;7.51;82.10;100274.84;2105135;28;46800;-57
2023/12/02 01:40:15;;;;;;;;;28.00;26.25;;;;;7.52;81.89;100273.97;2103383;27;46427;-59
2023/12/02 01:41:15;;;;;;;;;30.25;27.50;;;;;7.53;81.63;100266.00;2104953;28;46303;-58
2023/12/02 01:42:15;;;;;;;;;33.50;25.50;;;;;7.54;81.87;100272.16;2104008;28;46480;-57
2023/12/02 01:43:24;;;;;;;;;28.50;22.25;;;;;7.55;82.28;100274.78;2103996;28;46725;-60
2023/12/02 01:44:24;;;;;;;;;22.80;22.80;;;;;7.55;81.96;100276.53;2105147;27;46678;-59
2023/12/02 01:45:24;;;;;;;;;23.75;22.75;;;;;7.53;82.16;100286.25;2105541;27;46249;-61
2023/12/02 01:46:26;;;;;;;;;27.75;26.50;;;;;7.52;81.97;100273.97;2104280;27;46477;-59
2023/12/02 01:47:26;;;;;;;;;27.20;26.60;;;;;7.53;82.28;100288.91;2105109;28;46373;-57
2023/12/02 01:48:31;;;;;;;;;32.00;25.75;;;;;7.53;82.29;100286.25;2103889;28;46755;-57
2023/12/02 01:49:32;;;;;;;;;27.00;24.40;;;;;7.51;82.31;100286.28;2099628;28;46683;-55
2023/12/02 01:50:32;;;;;;;;;27.75;23.25;;;;;7.50;82.15;100286.31;2105092;27;46368;-61
2023/12/02 01:51:34;;;;;;;;;27.50;24.25;;;;;7.50;82.63;100292.47;2105146;27;46325;-58
2023/12/02 01:52:34;;;;;;;;;30.20;27.40;;;;;7.52;82.80;100298.59;2104802;28;45763;-62
2023/12/02 01:53:34;;;;;;;;;25.25;21.75;;;;;7.51;82.61;100296.84;2105427;27;46276;-60
2023/12/02 01:54:35;;;;;;;;;30.25;23.75;;;;;7.52;82.97;100300.38;2105307;27;46931;-61
2023/12/02 01:55:35;;;;;;;;;27.50;26.25;;;;;7.53;83.05;100295.06;2105597;27;46336;-59
2023/12/02 01:56:36;;;;;;;;;32.50;26.75;;;;;7.54;83.19;100306.47;2105167;27;46481;-59
2023/12/02 01:57:36;;;;;;;;;24.25;21.00;;;;;7.55;83.24;100300.31;2104155;27;46499;-59
2023/12/02 01:58:37;;;;;;;;;33.25;31.00;;;;;7.55;83.39;100303.81;2094429;28;46263;-64
2023/12/02 01:59:44;;;;;;;;;31.75;31.25;;;;;7.56;83.45;100300.28;2095711;28;46766;-59
2023/12/02 02:00:45;;;;;;;;;34.80;28.00;;;;;7.55;83.67;100309.09;2104914;27;45829;-59
2023/12/02 02:01:45;;;;;;;;;35.00;31.25;;;;;7.56;83.53;100305.56;2105781;27;46694;-57
2023/12/02 02:02:46;;;;;;;;;26.75;26.75;;;;;7.57;83.89;100311.72;2104145;28;46232;-57
2023/12/02 02:03:50;;;;;;;;;29.75;26.50;;;;;7.58;83.83;100314.31;2104060;28;46224;-60
2023/12/02 02:04:50;;;;;;;;;29.60;29.20;;;;;7.58;83.61;100313.44;2105042;27;46352;-61
2023/12/02 02:05:51;;;;;;;;;20.00;18.50;;;;;7.57;83.84;100309.94;2098749;28;46360;-57
2023/12/02 02:06:51;;;;;;;;;28.00;27.75;;;;;7.58;84.24;100310.81;2104222;27;46646;-61
2023/12/02 02:07:51;;;;;;;;;30.25;28.75;;;;;7.57;84.09;100317.00;2105059;27;46512;-58
2023/12/02 02:08:52;;;;;;;;;34.75;31.25;;;;;7.56;84.28;100317.88;2105226;27;46304;-61
2023/12/02 02:09:52;;;;;;;;;30.25;27.75;;;;;7.55;84.29;100321.44;2103650;28;46255;-61
2023/12/02 02:10:59;;;;;;;;;33.25;31.75;;;;;7.54;84.32;100324.97;2104848;28;46639;-58
2023/12/02 02:11:59;;;;;;;;;28.80;27.60;;;;;7.51;nan;100319.75;2105019;27;46787;-60
2023/12/02 02:12:59;;;;;;;;;32.50;30.50;;;;;7.49;84.35;100326.78;2103064;28;45923;-57
2023/12/02 02:14:00;;;;;;;;;28.50;25.00;;;;;7.48;84.96;100332.97;2105240;28;46741;-58
2023/12/02 02:15:00;;;;;;;;;34.25;29.50;;;;;7.47;85.03;100329.47;2105267;27;44968;-59
2023/12/02 02:16:01;;;;;;;;;32.25;29.25;;;;;7.47;85.17;100333.88;2104928;27;47122;-59
2023/12/02 02:17:01;;;;;;;;;37.50;30.00;;;;;7.48;85.28;100332.97;2104110;27;46237;-59
2023/12/02 02:18:02;;;;;;;;;28.00;25.50;;;;;7.45;85.51;100341.81;2105048;27;46622;-57
2023/12/02 02:19:03;;;;;;;;;30.00;27.50;;;;;7.44;85.31;100333.91;2104725;28;46608;-59
2023/12/02 02:20:04;;;;;;;;;28.50;26.50;;;;;7.44;85.50;100340.06;2101704;27;46165;-58
2023/12/02 02:21:05;;;;;;;;;29.40;23.00;;;;;7.45;85.77;100338.31;2102184;28;46575;-58
2023/12/02 02:22:05;;;;;;;;;35.50;31.50;;;;;7.46;85.97;100340.03;2103629;28;46709;-57
2023/12/02 02:23:05;;;;;;;;;30.00;26.00;;;;;7.46;86.14;100342.69;2104241;28;46342;-56
2023/12/02 02:24:06;;;;;;;;;33.50;27.25;;;;;7.45;85.68;100340.94;2104835;28;46280;-59
2023/12/02 02:25:06;;;;;;;;;30.50;28.50;;;;;7.45;85.81;100348.88;2105114;28;45257;-57
2023/12/02 02:26:07;;;;;;;;;26.00;23.50;;;;;7.45;85.28;100343.59;2104838;27;46664;-59
2023/12/02 02:27:07;;;;;;;;;23.75;23.75;;;;;7.42;85.12;100343.63;2102918;28;46654;-57
2023/12/02 02:28:07;;;;;;;;;36.00;31.50;;;;;7.42;84.90;100351.56;2096033;28;46623;-58
2023/12/02 02:29:08;;;;;;;;;28.50;26.75;;;;;7.41;84.79;100350.69;2104389;27;46021;-57
2023/12/02 02:30:09;;;;;;;;;30.75;27.75;;;;;7.41;84.92;100350.69;2102952;28;46465;-56
2023/12/02 02:31:09;;;;;;;;;29.60;27.40;;;;;7.41;84.33;100348.03;2102697;27;46502;-58
2023/12/02 02:32:10;;;;;;;;;29.50;27.75;;;;;7.41;84.05;100352.44;2104640;27;46976;-57
2023/12/02 02:33:10;;;;;;;;;29.50;27.25;;;;;7.40;84.13;100350.72;2113626;27;46417;-56
2023/12/02 02:34:10;;;;;;;;;33.00;29.75;;;;;7.38;83.83;100351.59;2107686;27;46313;-53
2023/12/02 02:35:10;;;;;;;;;33.25;27.75;;;;;7.37;83.56;100351.63;2104942;27;46461;-55
2023/12/02 02:36:11;;;;;;;;;26.50;23.00;;;;;7.36;83.50;100345.44;2104847;27;45635;-57
2023/12/02 02:37:11;;;;;;;;;30.25;25.50;;;;;7.36;83.67;100347.22;2105093;27;46680;-59
2023/12/02 02:38:11;;;;;;;;;31.25;29.75;;;;;7.35;83.58;100358.69;2094979;28;46496;-57
2023/12/02 02:39:12;;;;;;;;;28.00;26.75;;;;;7.33;83.53;100361.34;2095458;28;46179;-59
2023/12/02 02:40:12;;;;;;;;;29.75;26.75;;;;;7.34;83.51;100359.56;2104013;28;47910;-57
2023/12/02 02:41:13;;;;;;;;;30.25;28.75;;;;;7.33;83.44;100356.06;2104436;27;46751;-58
2023/12/02 02:42:13;;;;;;;;;29.00;28.25;;;;;7.34;83.42;100356.94;2104919;27;46433;-57
2023/12/02 02:43:13;;;;;;;;;35.25;31.75;;;;;7.33;83.63;100360.47;2104820;27;46474;-58
2023/12/02 02:44:13;;;;;;;;;30.25;28.50;;;;;7.34;83.63;100357.81;2096153;28;46725;-56
2023/12/02 02:45:14;;;;;;;;;29.00;27.25;;;;;7.34;83.67;100360.44;2097936;28;46481;-58
2023/12/02 02:46:14;;;;;;;;;31.00;30.00;;;;;7.35;84.00;100359.53;2104127;28;46746;-59
2023/12/02 02:47:14;;;;;;;;;30.50;27.75;;;;;7.36;83.94;100361.28;2104769;28;46593;-59
2023/12/02 02:48:15;;;;;;;;;33.00;28.00;;;;;7.36;83.99;100363.06;2104587;28;46689;-55
2023/12/02 02:49:15;;;;;;;;;31.25;28.75;;;;;7.35;83.50;100370.09;2104907;27;46507;-58
2023/12/02 02:50:16;;;;;;;;;25.75;25.00;;;;;7.32;84.03;100361.38;2103931;28;46209;-59
2023/12/02 02:51:16;;;;;;;;;31.00;28.80;;;;;7.31;84.02;100363.13;2105481;27;46768;-60
2023/12/02 02:52:17;;;;;;;;;32.50;31.50;;;;;7.30;84.00;100363.16;2104495;27;46282;-60
2023/12/02 02:53:18;;;;;;;;;32.50;28.25;;;;;7.30;83.77;100371.94;2105232;27;45992;-61
2023/12/02 02:54:18;;;;;;;;;33.50;32.00;;;;;7.29;83.92;100364.06;2104711;28;46476;-61
2023/12/02 02:55:18;;;;;;;;;35.75;30.50;;;;;7.27;84.13;100372.00;2105176;27;46270;-59
2023/12/02 02:56:19;;;;;;;;;31.25;28.00;;;;;7.28;84.12;100370.22;2104145;27;46331;-60
2023/12/02 02:57:20;;;;;;;;;32.00;29.00;;;;;7.28;84.70;100368.47;2095780;28;47489;-57
2023/12/02 02:58:21;;;;;;;;;32.40;26.00;;;;;7.28;84.67;100373.75;2096136;28;46966;-60
2023/12/02 02:59:21;;;;;;;;;30.50;29.75;;;;;7.28;84.33;100373.75;2104821;28;46299;-60
2023/12/02 03:00:23;;;;;;;;;28.75;27.00;;;;;7.28;84.77;100372.88;2103707;28;45665;-58
2023/12/02 03:01:23;;;;;;;;;36.80;30.00;;;;;7.27;85.11;100372.00;2104851;27;46559;-60
2023/12/02 03:02:23;;;;;;;;;32.00;28.25;;;;;7.27;84.42;100384.31;2102807;28;46431;-60
2023/12/02 03:03:24;;;;;;;;;34.00;28.00;;;;;7.25;84.69;100383.47;2107998;27;46404;-60
2023/12/02 03:04:24;;;;;;;;;37.75;33.50;;;;;7.24;84.45;100381.69;2112879;27;46457;-58
2023/12/02 03:05:24;;;;;;;;;35.50;33.75;;;;;7.25;85.21;100378.19;2104906;27;46428;-59
2023/12/02 03:06:25;;;;;;;;;31.50;29.75;;;;;7.26;84.99;100385.22;2104870;28;46159;-59
2023/12/02 03:07:25;;;;;;;;;36.25;31.00;;;;;7.26;85.06;100380.81;2104654;27;46724;-59
2023/12/02 03:08:25;;;;;;;;;31.00;28.75;;;;;7.27;85.24;100384.31;2105103;27;46513;-59
2023/12/02 03:09:25;;;;;;;;;37.75;34.50;;;;;7.28;85.48;100380.78;2104940;27;46514;-59
2023/12/02 03:10:26;;;;;;;;;35.25;29.25;;;;;7.28;85.41;100381.66;2103994;28;46577;-57
2023/12/02 03:11:26;;;;;;;;;30.50;28.25;;;;;7.27;85.22;100381.69;2104332;27;45072;-58
2023/12/02 03:12:27;;;;;;;;;31.25;28.25;;;;;7.27;85.58;100376.41;2094836;28;46269;-58
2023/12/02 03:13:27;;;;;;;;;32.75;29.25;;;;;7.27;85.42;100376.41;2095467;28;46805;-56
2023/12/02 03:14:28;;;;;;;;;41.00;32.50;;;;;7.27;85.71;100382.56;2094693;28;46696;-57
2023/12/02 03:15:28;;;;;;;;;39.50;35.00;;;;;7.26;86.28;100386.09;2095287;28;46995;-58
2023/12/02 03:16:28;;;;;;;;;29.50;25.75;;;;;7.25;86.44;100375.56;2104262;28;47439;-56
2023/12/02 03:17:29;;;;;;;;;33.50;33.00;;;;;7.25;87.13;100381.72;2103638;27;44995;-57
2023/12/02 03:18:29;;;;;;;;;32.00;30.00;;;;;7.27;87.51;100379.91;2105029;27;46716;-58
2023/12/02 03:19:29;;;;;;;;;36.00;29.25;;;;;7.28;87.82;100381.66;2104862;28;46587;-58
2023/12/02 03:20:29;;;;;;;;;41.50;35.00;;;;;7.25;87.87;100383.47;2103524;27;46413;-59
2023/12/02 03:21:30;;;;;;;;;36.75;29.75;;;;;7.26;88.19;100374.66;2103908;27;46240;-58
2023/12/02 03:22:30;;;;;;;;;37.25;33.25;;;;;7.23;88.38;100375.56;2104372;27;46851;-59
2023/12/02 03:23:30;;;;;;;;;32.50;30.75;;;;;7.23;88.55;100380.84;2105380;27;46560;-57
2023/12/02 03:24:31;;;;;;;;;36.00;32.25;;;;;7.22;89.02;100373.81;2104118;28;46792;-60
2023/12/02 03:25:31;;;;;;;;;35.75;33.50;;;;;7.20;89.22;100383.50;2103697;28;46931;-57
2023/12/02 03:26:34;;;;;;;;;33.25;31.00;;;;;7.22;89.35;100384.38;2104615;28;46606;-57
2023/12/02 03:27:34;;;;;;;;;37.00;29.80;;;;;7.22;89.57;100381.72;2104534;27;46386;-59
2023/12/02 03:28:35;;;;;;;;;37.00;34.50;;;;;7.22;89.61;100386.13;2104130;28;46316;-61
2023/12/02 03:29:35;;;;;;;;;33.25;28.00;;;;;7.22;89.67;100387.00;2103772;28;46843;-59
2023/12/02 03:30:35;;;;;;;;;35.50;31.75;;;;;7.23;89.82;100387.88;2103223;28;45916;-59
2023/12/02 03:31:36;;;;;;;;;39.50;36.25;;;;;7.22;89.91;100387.00;2099443;27;45607;-56
2023/12/02 03:32:39;;;;;;;;;40.50;34.75;;;;;7.21;89.79;100387.91;2102084;28;46606;-59
2023/12/02 03:33:40;;;;;;;;;36.80;31.40;;;;;7.20;89.73;100385.28;2104852;27;46407;-57
2023/12/02 03:34:40;;;;;;;;;28.75;25.75;;;;;7.18;89.42;100392.34;2104978;27;46283;-57
2023/12/02 03:35:40;;;;;;;;;38.50;32.00;;;;;7.16;89.72;100388.88;2103771;28;46371;-58
2023/12/02 03:36:41;;;;;;;;;38.50;33.75;;;;;7.15;89.61;100392.41;2104646;27;46487;-56
2023/12/02 03:37:41;;;;;;;;;35.25;32.25;;;;;7.14;89.82;100386.25;2104466;28;46307;-57
2023/12/02 03:38:41;;;;;;;;;37.75;34.00;;;;;7.12;89.80;100388.03;2104666;27;45670;-56
2023/12/02 03:39:42;;;;;;;;;38.25;33.25;;;;;7.12;89.46;100387.16;2105609;27;46441;-57
2023/12/02 03:40:42;;;;;;;;;39.00;35.25;;;;;7.10;89.69;100387.16;2104786;28;46873;-58
2023/12/02 03:41:42;;;;;;;;;34.50;34.50;;;;;7.09;89.58;100391.56;2106131;27;46207;-57
2023/12/02 03:42:43;;;;;;;;;36.00;32.75;;;;;7.09;89.49;100394.22;2105902;28;46179;-59
2023/12/02 03:43:43;;;;;;;;;38.25;30.50;;;;;7.09;89.27;100398.59;2106008;28;46821;-58
2023/12/02 03:44:45;;;;;;;;;32.00;28.00;;;;;7.07;89.69;100395.13;2096211;28;46161;-59
2023/12/02 03:45:46;;;;;;;;;31.60;31.00;;;;;7.07;89.55;100398.63;2096452;28;46761;-58
2023/12/02 03:46:46;;;;;;;;;39.00;33.00;;;;;7.00;89.53;100385.56;2105754;27;46396;-58
2023/12/02 03:47:47;;;;;;;;;37.75;33.50;;;;;7.06;89.40;100403.94;2096412;28;45932;-59
2023/12/02 03:48:47;;;;;;;;;37.00;32.25;;;;;7.05;89.14;100396.91;2096388;28;46278;-59
2023/12/02 03:49:48;;;;;;;;;36.75;33.25;;;;;7.02;88.87;100403.09;2104751;28;46477;-56
2023/12/02 03:50:48;;;;;;;;;33.75;30.75;;;;;7.03;88.70;100403.97;2104898;27;46503;-57
2023/12/02 03:51:48;;;;;;;;;31.50;29.00;;;;;7.05;88.83;100408.34;2108974;27;46434;-58
2023/12/02 03:52:49;;;;;;;;;28.25;26.25;;;;;7.04;88.62;100400.44;2114614;27;46762;-57
2023/12/02 03:53:50;;;;;;;;;32.50;28.75;;;;;7.04;88.70;100403.97;2109794;27;46333;-58
2023/12/02 03:54:50;;;;;;;;;31.80;30.00;;;;;7.01;88.67;100403.13;2107227;27;46624;-56
2023/12/02 03:55:53;;;;;;;;;37.25;34.00;;;;;7.01;88.61;100411.91;2095777;28;45856;-56
2023/12/02 03:56:53;;;;;;;;;34.60;34.00;;;;;7.00;88.74;100415.44;2096096;28;46406;-58
2023/12/02 03:57:53;;;;;;;;;33.75;30.75;;;;;7.02;88.29;100418.06;2106129;27;46265;-56
2023/12/02 03:58:55;;;;;;;;;29.75;26.50;;;;;-143.47;100.00;63865.75;2106130;27;45884;-58
2023/12/02 03:59:55;;;;;;;;;27.20;25.60;;;;;-143.47;100.00;63865.75;2105582;27;46989;-57
2023/12/02 04:00:56;;;;;;;;;42.75;35.00;;;;;-143.47;100.00;63865.75;2105585;27;47035;-58
2023/12/02 04:01:56;;;;;;;;;40.00;35.00;;;;;-143.47;100.00;63865.75;2105818;28;46372;-57
2023/12/02 04:02:59;;;;;;;;;43.25;35.00;;;;;-143.47;100.00;63865.75;2105620;28;46168;-57
2023/12/02 04:03:59;;;;;;;;;37.40;34.40;;;;;-143.47;100.00;63865.75;2105960;27;46922;-58
2023/12/02 04:05:00;;;;;;;;;36.50;33.00;;;;;-143.47;100.00;63865.75;2106175;27;46659;-55
2023/12/02 04:06:00;;;;;;;;;35.75;33.25;;;;;-143.47;100.00;63865.75;2105750;27;46710;-55
2023/12/02 04:07:00;;;;;;;;;46.25;38.00;;;;;-143.47;100.00;63865.75;2105589;27;46402;-55
2023/12/02 04:08:01;;;;;;;;;41.00;34.75;;;;;-143.47;100.00;63865.75;2106136;28;46959;-56
2023/12/02 04:09:01;;;;;;;;;41.75;34.50;;;;;-143.47;100.00;63865.75;2107369;27;46169;-58
2023/12/02 04:10:03;;;;;;;;;46.50;40.50;;;;;-143.47;100.00;63865.75;2108280;27;46106;-57
2023/12/02 04:11:03;;;;;;;;;54.00;41.80;;;;;-143.47;100.00;63865.75;2106101;27;46314;-58
2023/12/02 04:12:04;;;;;;;;;47.25;39.50;;;;;-143.47;100.00;63865.75;2106514;27;46470;-56
2023/12/02 04:13:07;;;;;;;;;54.50;44.75;;;;;-143.47;100.00;63865.75;2111790;27;46146;-58
2023/12/02 04:14:07;;;;;;;;;56.60;46.40;;;;;-143.47;100.00;63865.75;2105615;27;46467;-58
2023/12/02 04:15:08;;;;;;;;;59.75;48.50;;;;;-143.47;100.00;63865.75;2101805;27;46188;-57
2023/12/02 04:16:09;;;;;;;;;51.25;40.75;;;;;-143.47;100.00;63865.75;2093574;28;46225;-57
2023/12/02 04:17:09;;;;;;;;;57.75;46.50;;;;;-143.47;100.00;63865.75;2096447;28;46553;-56
2023/12/02 04:18:10;;;;;;;;;63.25;50.75;;;;;-143.47;100.00;63865.75;2105755;28;46267;-58
2023/12/02 04:19:10;;;;;;;;;59.50;47.00;;;;;-143.47;100.00;63865.75;2105976;27;46231;-56
2023/12/02 04:20:14;;;;;;;;;60.50;46.75;;;;;-143.47;100.00;63865.75;2104409;28;46177;-57
2023/12/02 04:21:15;;;;;;;;;56.20;46.60;;;;;-143.47;100.00;63865.75;2105741;27;46568;-57
2023/12/02 04:22:16;;;;;;;;;61.75;49.00;;;;;-143.47;100.00;63865.75;2105612;27;46441;-57
2023/12/02 04:23:17;;;;;;;;;61.80;49.40;;;;;-143.47;100.00;63865.75;2105871;27;46846;-55
2023/12/02 04:24:17;;;;;;;;;62.75;49.00;;;;;-143.47;100.00;63865.75;2101791;27;46511;-59
2023/12/02 04:25:17;;;;;;;;;58.50;46.25;;;;;-143.47;100.00;63865.75;2105070;28;46814;-55
2023/12/02 04:26:18;;;;;;;;;59.00;46.50;;;;;-143.47;100.00;63865.75;2106131;27;46244;-57
2023/12/02 04:27:18;;;;;;;;;55.50;46.00;;;;;-143.47;100.00;63865.75;2105795;27;46187;-57
2023/12/02 04:28:18;;;;;;;;;56.50;47.75;;;;;-143.47;100.00;63865.75;2105289;28;46579;-57
2023/12/02 04:29:19;;;;;;;;;55.75;45.00;;;;;-143.47;100.00;63865.75;2105268;28;46669;-57
2023/12/02 04:30:19;;;;;;;;;52.25;43.00;;;;;-143.47;100.00;63865.75;2104784;27;46392;-54
2023/12/02 04:31:19;;;;;;;;;52.50;44.25;;;;;-143.47;100.00;63865.75;2102798;27;46257;-58
2023/12/02 04:32:20;;;;;;;;;52.25;39.50;;;;;-143.47;100.00;63865.75;2101744;28;46830;-57
2023/12/02 04:33:20;;;;;;;;;53.50;41.00;;;;;-143.47;100.00;63865.75;2105719;27;46366;-56
2023/12/02 04:34:20;;;;;;;;;41.25;36.50;;;;;-143.47;100.00;63865.75;2111486;27;46233;-56
2023/12/02 04:35:21;;;;;;;;;36.50;33.00;;;;;-143.47;100.00;63865.75;2100644;28;46313;-55
2023/12/02 04:36:21;;;;;;;;;43.25;39.75;;;;;-143.47;100.00;63865.75;2105679;27;46240;-55
2023/12/02 04:37:24;;;;;;;;;53.25;44.75;;;;;-143.47;100.00;63865.75;2105696;27;46613;-57